Dan Fighter — OVUE2 — position and weather

sailwx.info

Track history (hours):
 
Tides and Currents Weather Stations Pressure Air Temp Water Temp Dewpoint Dewpoint Depression Visibility Wind Speed Wind Dir Waves Ship Positions

Dan Fighter

Last reported at 2015-Mar-05 04:08 UTC. Time now 2015-Mar-06 17:38 UTC.
Position N 43°40' W 005°13'.

Length 64 m; draft 3.1 m.

Type: Cargo ship. MMSI: 220386978.

Date/timePositionNaut miles runAvg speedWind from/ knotsBaromVisibWave heightAir tempDewpointWater temp
2015-Mar-05 04:08N 43°40' W 005°13'5 8.0
2015-Mar-05 03:27N 43°40' W 005°21'7 8.1
2015-Mar-05 02:33N 43°41' W 005°31'9 8.7
2015-Mar-05 01:33N 43°42' W 005°43'9 7.9
2015-Mar-05 00:27N 43°42' W 005°55'8 7.9
2015-Mar-04 23:24N 43°43' W 006°06'  
2015-Feb-26 22:16N 50°25' W 001°28'7 8.2
2015-Feb-26 21:26N 50°26' W 001°17'17 9.1
2015-Feb-26 19:32N 50°27' W 000°50'10 9.1
2015-Feb-26 18:26N 50°29' W 000°35'8 8.1
2015-Feb-26 17:24N 50°29' W 000°22'19 5.9
2015-Feb-26 14:16N 50°33' E 000°07'6 5.4
2015-Feb-26 13:09N 50°35' E 000°16'4 6.1
2015-Feb-26 12:33N 50°36' E 000°21'7 7.0
2015-Feb-26 11:33N 50°38' E 000°32'8 7.9
2015-Feb-26 10:33N 50°42' E 000°42'8 8.3
2015-Feb-26 09:33N 50°47' E 000°53'8 8.1
2015-Feb-26 08:30N 50°52' E 001°04'7 7.6
2015-Feb-26 07:33N 50°57' E 001°12'7 6.9
2015-Feb-26 06:33N 51°01' E 001°21'6 6.0
2015-Feb-26 05:34N 51°05' E 001°28'6 5.6
2015-Feb-26 04:33N 51°09' E 001°35'6 6.4
2015-Feb-26 03:33N 51°13' E 001°43'8 7.8
2015-Feb-26 02:33N 51°19' E 001°49'9 9.5
2015-Feb-26 01:33N 51°28' E 001°56'10 9.8
2015-Feb-26 00:33N 51°35' E 002°07'10 9.9
2015-Feb-25 23:33N 51°42' E 002°18'53 7.5
2015-Feb-25 16:26N 52°03' E 003°37'7 8.2
2015-Feb-25 15:33N 52°03' E 003°49'8 8.2
2015-Feb-25 14:34N 52°00' E 004°02'12 5.5
2015-Feb-25 12:27N 51°53' E 004°17'0 0.0
2015-Feb-25 11:33N 51°53' E 004°17'0 0.0
2015-Feb-25 10:30N 51°53' E 004°17'0 0.0
2015-Feb-25 09:30N 51°53' E 004°17'0 0.0
2015-Feb-25 08:30N 51°53' E 004°17'0 0.0
2015-Feb-25 07:33N 51°53' E 004°17'0 0.0
2015-Feb-25 06:33N 51°53' E 004°17'0 0.0
2015-Feb-25 05:30N 51°53' E 004°17'0 0.0
2015-Feb-25 04:30N 51°53' E 004°17'0 0.0
2015-Feb-25 03:24N 51°53' E 004°17'0 0.0
2015-Feb-25 02:33N 51°53' E 004°17'0 0.0
2015-Feb-25 01:33N 51°53' E 004°17'0 0.0
2015-Feb-25 00:33N 51°53' E 004°17'0 0.0
2015-Feb-24 23:33N 51°53' E 004°17'0 0.0
2015-Feb-24 22:27N 51°53' E 004°17'0 0.0
2015-Feb-24 21:30N 51°53' E 004°17'0 0.0
2015-Feb-24 20:33N 51°53' E 004°17'1 1.0
2015-Feb-24 19:33N 51°53' E 004°18'8 8.1
2015-Feb-24 18:33N 51°58' E 004°08'10 9.7
2015-Feb-24 17:33N 52°02' E 003°53'8 7.4
2015-Feb-24 16:33N 52°08' E 003°47'7 6.8
2015-Feb-24 15:32N 52°15' E 003°47'100 4.0
2015-Feb-23 14:25N 53°48' E 004°49'5 5.5
2015-Feb-23 13:31N 53°52' E 004°54'5 4.4
2015-Feb-23 12:26N 53°57' E 004°58'3 3.6
2015-Feb-23 11:33N 53°59' E 005°01'3 3.4
2015-Feb-23 10:33N 54°02' E 005°04'4 3.9
2015-Feb-23 09:32N 54°06' E 005°05'4 4.1
2015-Feb-23 08:33N 54°10' E 005°05'4 3.4
2015-Feb-23 07:29N 54°13' E 005°07'  
Track history (hours):
 
Tides and Currents Weather Stations Pressure Air Temp Water Temp Dewpoint Dewpoint Depression Visibility Wind Speed Wind Dir Waves Ship Positions

Dan Fighter

Last reported at 2015-Mar-05 04:08 UTC. Time now 2015-Mar-06 17:38 UTC.
Position N 43°40' W 005°13'.

Length 64 m; draft 3.1 m.

Type: Cargo ship. MMSI: 220386978.

Date/timePositionNaut miles runAvg speedWind from/ knotsBaromVisibWave heightAir tempDewpointWater temp
2015-Mar-05 04:08N 43°40' W 005°13'5 8.0
2015-Mar-05 03:27N 43°40' W 005°21'7 8.1
2015-Mar-05 02:33N 43°41' W 005°31'9 8.7
2015-Mar-05 01:33N 43°42' W 005°43'9 7.9
2015-Mar-05 00:27N 43°42' W 005°55'8 7.9
2015-Mar-04 23:24N 43°43' W 006°06'  
2015-Feb-26 22:16N 50°25' W 001°28'7 8.2
2015-Feb-26 21:26N 50°26' W 001°17'17 9.1
2015-Feb-26 19:32N 50°27' W 000°50'10 9.1
2015-Feb-26 18:26N 50°29' W 000°35'8 8.1
2015-Feb-26 17:24N 50°29' W 000°22'19 5.9
2015-Feb-26 14:16N 50°33' E 000°07'6 5.4
2015-Feb-26 13:09N 50°35' E 000°16'4 6.1
2015-Feb-26 12:33N 50°36' E 000°21'7 7.0
2015-Feb-26 11:33N 50°38' E 000°32'8 7.9
2015-Feb-26 10:33N 50°42' E 000°42'8 8.3
2015-Feb-26 09:33N 50°47' E 000°53'8 8.1
2015-Feb-26 08:30N 50°52' E 001°04'7 7.6
2015-Feb-26 07:33N 50°57' E 001°12'7 6.9
2015-Feb-26 06:33N 51°01' E 001°21'6 6.0
2015-Feb-26 05:34N 51°05' E 001°28'6 5.6
2015-Feb-26 04:33N 51°09' E 001°35'6 6.4
2015-Feb-26 03:33N 51°13' E 001°43'8 7.8
2015-Feb-26 02:33N 51°19' E 001°49'9 9.5
2015-Feb-26 01:33N 51°28' E 001°56'10 9.8
2015-Feb-26 00:33N 51°35' E 002°07'10 9.9
2015-Feb-25 23:33N 51°42' E 002°18'53 7.5
2015-Feb-25 16:26N 52°03' E 003°37'7 8.2
2015-Feb-25 15:33N 52°03' E 003°49'8 8.2
2015-Feb-25 14:34N 52°00' E 004°02'12 5.5
2015-Feb-25 12:27N 51°53' E 004°17'0 0.0
2015-Feb-25 11:33N 51°53' E 004°17'0 0.0
2015-Feb-25 10:30N 51°53' E 004°17'0 0.0
2015-Feb-25 09:30N 51°53' E 004°17'0 0.0
2015-Feb-25 08:30N 51°53' E 004°17'0 0.0
2015-Feb-25 07:33N 51°53' E 004°17'0 0.0
2015-Feb-25 06:33N 51°53' E 004°17'0 0.0
2015-Feb-25 05:30N 51°53' E 004°17'0 0.0
2015-Feb-25 04:30N 51°53' E 004°17'0 0.0
2015-Feb-25 03:24N 51°53' E 004°17'0 0.0
2015-Feb-25 02:33N 51°53' E 004°17'0 0.0
2015-Feb-25 01:33N 51°53' E 004°17'0 0.0
2015-Feb-25 00:33N 51°53' E 004°17'0 0.0
2015-Feb-24 23:33N 51°53' E 004°17'0 0.0
2015-Feb-24 22:27N 51°53' E 004°17'0 0.0
2015-Feb-24 21:30N 51°53' E 004°17'0 0.0
2015-Feb-24 20:33N 51°53' E 004°17'1 1.0
2015-Feb-24 19:33N 51°53' E 004°18'8 8.1
2015-Feb-24 18:33N 51°58' E 004°08'10 9.7
2015-Feb-24 17:33N 52°02' E 003°53'8 7.4
2015-Feb-24 16:33N 52°08' E 003°47'7 6.8
2015-Feb-24 15:32N 52°15' E 003°47'100 4.0
2015-Feb-23 14:25N 53°48' E 004°49'5 5.5
2015-Feb-23 13:31N 53°52' E 004°54'5 4.4
2015-Feb-23 12:26N 53°57' E 004°58'3 3.6
2015-Feb-23 11:33N 53°59' E 005°01'3 3.4
2015-Feb-23 10:33N 54°02' E 005°04'4 3.9
2015-Feb-23 09:32N 54°06' E 005°05'4 4.1
2015-Feb-23 08:33N 54°10' E 005°05'4 3.4
2015-Feb-23 07:29N 54°13' E 005°07'  

Dump ship's entire track history